weather.gov     
National Weather Service

Terminal Aerodrome Forecast
NWS Homepage
This page is being discontinued on March 12, 2014.
The same data is available at this site. Please update your bookmarks.
Thank you, and we apologize for the inconvenience.
Please send an email to SR-SRH.Webmaster@noaa.gov with any concerns.


Current Version
Previous Version:    01  02  03  04  05  06  07  08  09  10  11  12  13  14  15  16  17  18  19  20  21  22  23  24  25  26  27  28  29  30  
   31  32  33  34  35  36  37  38  
[Printable]
584
FTUS44 KBRO 021100 RRA
TAFBRO
TAF
KBRO 021149Z 0212/0312 10006KT P6SM FEW025
     FM021400 13012KT P6SM VCSH SCT025
     FM021800 14015KT P6SM VCTS BKN050CB
      TEMPO 0218/0222 4SM +TSRA BKN025CB
     FM030200 11008KT P6SM VCSH SCT025 BKN150 PROB30 0302/0307
      VRB15G30KT 4SM +TSRA BKN030CB OVC050
     FM030800 11010KT P6SM VCSH BKN035 OVC150=


U.S. Dept. of Commerce
NOAA National Weather Service
1325 East West Highway
Silver Spring, MD 20910
E-mail: w-nws.webmaster@noaa.gov
Page last modified: May 16, 2007
NATIONAL WEATHER SERVICE: for Safety, for Work, for Fun - FOR LIFE